sensor_id;sensor_type;location;lat;lon;timestamp;temperature;humidity
12726;DHT22;6427;49.754;6.106;2023-12-28T00:02:12;9.90;99.90
12726;DHT22;6427;49.754;6.106;2023-12-28T00:04:40;9.80;99.90
12726;DHT22;6427;49.754;6.106;2023-12-28T00:07:07;9.70;99.90
12726;DHT22;6427;49.754;6.106;2023-12-28T00:09:35;9.70;99.90
12726;DHT22;6427;49.754;6.106;2023-12-28T00:12:03;9.60;99.90
12726;DHT22;6427;49.754;6.106;2023-12-28T00:14:30;9.60;99.90
12726;DHT22;6427;49.754;6.106;2023-12-28T00:16:58;9.50;99.90
12726;DHT22;6427;49.754;6.106;2023-12-28T00:19:25;9.50;99.90
12726;DHT22;6427;49.754;6.106;2023-12-28T00:21:53;9.50;99.90
12726;DHT22;6427;49.754;6.106;2023-12-28T00:24:21;9.50;99.90
12726;DHT22;6427;49.754;6.106;2023-12-28T00:26:48;9.70;99.90
12726;DHT22;6427;49.754;6.106;2023-12-28T00:29:17;9.90;99.90
12726;DHT22;6427;49.754;6.106;2023-12-28T00:31:44;9.90;99.90
12726;DHT22;6427;49.754;6.106;2023-12-28T00:34:12;9.70;99.90
12726;DHT22;6427;49.754;6.106;2023-12-28T00:36:39;9.90;99.90
12726;DHT22;6427;49.754;6.106;2023-12-28T00:39:07;9.80;99.90
12726;DHT22;6427;49.754;6.106;2023-12-28T00:41:35;9.60;99.90
12726;DHT22;6427;49.754;6.106;2023-12-28T00:44:02;9.60;99.90
12726;DHT22;6427;49.754;6.106;2023-12-28T00:46:31;9.70;99.90
12726;DHT22;6427;49.754;6.106;2023-12-28T00:48:58;9.70;99.90
12726;DHT22;6427;49.754;6.106;2023-12-28T00:51:27;9.70;99.90
12726;DHT22;6427;49.754;6.106;2023-12-28T00:53:54;9.70;99.90
12726;DHT22;6427;49.754;6.106;2023-12-28T00:56:22;9.60;99.90
12726;DHT22;6427;49.754;6.106;2023-12-28T00:58:49;9.50;99.90
12726;DHT22;6427;49.754;6.106;2023-12-28T01:01:18;9.30;99.90
12726;DHT22;6427;49.754;6.106;2023-12-28T01:03:45;9.30;99.90
12726;DHT22;6427;49.754;6.106;2023-12-28T01:06:13;9.20;99.90
12726;DHT22;6427;49.754;6.106;2023-12-28T01:08:40;9.20;99.90
12726;DHT22;6427;49.754;6.106;2023-12-28T01:11:10;9.10;99.90
12726;DHT22;6427;49.754;6.106;2023-12-28T01:13:36;9.10;99.90
12726;DHT22;6427;49.754;6.106;2023-12-28T01:16:03;9.10;99.90
12726;DHT22;6427;49.754;6.106;2023-12-28T01:18:31;9.10;99.90
12726;DHT22;6427;49.754;6.106;2023-12-28T01:20:59;9.10;99.90
12726;DHT22;6427;49.754;6.106;2023-12-28T01:23:26;9.00;99.90
12726;DHT22;6427;49.754;6.106;2023-12-28T01:25:55;9.00;99.90
12726;DHT22;6427;49.754;6.106;2023-12-28T01:28:22;9.00;99.90
12726;DHT22;6427;49.754;6.106;2023-12-28T01:30:50;9.00;99.90
12726;DHT22;6427;49.754;6.106;2023-12-28T01:33:17;9.00;99.90
12726;DHT22;6427;49.754;6.106;2023-12-28T01:35:45;9.00;99.90
12726;DHT22;6427;49.754;6.106;2023-12-28T01:38:13;9.00;99.90
12726;DHT22;6427;49.754;6.106;2023-12-28T01:40:45;9.00;99.90
12726;DHT22;6427;49.754;6.106;2023-12-28T01:43:12;9.00;99.90
12726;DHT22;6427;49.754;6.106;2023-12-28T01:45:39;9.00;99.90
12726;DHT22;6427;49.754;6.106;2023-12-28T01:48:08;9.00;99.90
12726;DHT22;6427;49.754;6.106;2023-12-28T01:50:36;8.90;99.90
12726;DHT22;6427;49.754;6.106;2023-12-28T01:53:04;8.90;99.90
12726;DHT22;6427;49.754;6.106;2023-12-28T01:55:31;9.00;99.90
12726;DHT22;6427;49.754;6.106;2023-12-28T01:57:59;8.90;99.90
12726;DHT22;6427;49.754;6.106;2023-12-28T02:00:26;8.90;99.90
12726;DHT22;6427;49.754;6.106;2023-12-28T02:02:55;8.90;99.90
12726;DHT22;6427;49.754;6.106;2023-12-28T02:05:23;8.90;99.90
12726;DHT22;6427;49.754;6.106;2023-12-28T02:07:51;9.00;99.90
12726;DHT22;6427;49.754;6.106;2023-12-28T02:10:19;9.00;99.90
12726;DHT22;6427;49.754;6.106;2023-12-28T02:12:47;9.00;99.90
12726;DHT22;6427;49.754;6.106;2023-12-28T02:15:14;9.00;99.90
12726;DHT22;6427;49.754;6.106;2023-12-28T02:17:55;9.00;99.90
12726;DHT22;6427;49.754;6.106;2023-12-28T02:20:18;9.00;99.90
12726;DHT22;6427;49.754;6.106;2023-12-28T02:22:46;9.10;99.90
12726;DHT22;6427;49.754;6.106;2023-12-28T02:25:13;9.00;99.90
12726;DHT22;6427;49.754;6.106;2023-12-28T02:27:44;9.10;99.90
12726;DHT22;6427;49.754;6.106;2023-12-28T02:30:11;9.10;99.90
12726;DHT22;6427;49.754;6.106;2023-12-28T02:35:36;9.40;99.90
12726;DHT22;6427;49.754;6.106;2023-12-28T02:38:14;9.30;99.90
12726;DHT22;6427;49.754;6.106;2023-12-28T02:40:33;9.30;99.90
12726;DHT22;6427;49.754;6.106;2023-12-28T02:42:59;9.30;99.90
12726;DHT22;6427;49.754;6.106;2023-12-28T02:45:27;9.60;99.90
12726;DHT22;6427;49.754;6.106;2023-12-28T02:47:54;9.50;99.90
12726;DHT22;6427;49.754;6.106;2023-12-28T02:50:22;9.50;99.90
12726;DHT22;6427;49.754;6.106;2023-12-28T02:52:50;9.40;99.90
12726;DHT22;6427;49.754;6.106;2023-12-28T02:55:17;9.40;99.90
12726;DHT22;6427;49.754;6.106;2023-12-28T02:57:46;9.40;99.90
12726;DHT22;6427;49.754;6.106;2023-12-28T03:00:14;9.40;99.90
12726;DHT22;6427;49.754;6.106;2023-12-28T03:02:42;9.40;99.90
12726;DHT22;6427;49.754;6.106;2023-12-28T03:05:09;9.30;99.90
12726;DHT22;6427;49.754;6.106;2023-12-28T03:07:37;9.70;99.90
12726;DHT22;6427;49.754;6.106;2023-12-28T03:10:05;9.60;99.90
12726;DHT22;6427;49.754;6.106;2023-12-28T03:12:32;9.60;99.90
12726;DHT22;6427;49.754;6.106;2023-12-28T03:15:00;9.50;99.90
12726;DHT22;6427;49.754;6.106;2023-12-28T03:17:27;9.50;99.90
12726;DHT22;6427;49.754;6.106;2023-12-28T03:19:55;9.80;99.90
12726;DHT22;6427;49.754;6.106;2023-12-28T03:22:23;9.70;99.90
12726;DHT22;6427;49.754;6.106;2023-12-28T03:24:51;9.90;99.90
12726;DHT22;6427;49.754;6.106;2023-12-28T03:27:19;9.90;99.90
12726;DHT22;6427;49.754;6.106;2023-12-28T03:29:46;9.80;99.90
12726;DHT22;6427;49.754;6.106;2023-12-28T03:32:14;9.70;99.90
12726;DHT22;6427;49.754;6.106;2023-12-28T03:34:42;9.90;99.90
12726;DHT22;6427;49.754;6.106;2023-12-28T03:37:10;9.90;99.90
12726;DHT22;6427;49.754;6.106;2023-12-28T03:39:38;9.80;99.90
12726;DHT22;6427;49.754;6.106;2023-12-28T03:42:05;9.70;99.90
12726;DHT22;6427;49.754;6.106;2023-12-28T03:44:34;10.00;99.90
12726;DHT22;6427;49.754;6.106;2023-12-28T03:47:01;10.00;99.90
12726;DHT22;6427;49.754;6.106;2023-12-28T03:49:30;9.80;99.90
12726;DHT22;6427;49.754;6.106;2023-12-28T03:51:57;9.80;99.90
12726;DHT22;6427;49.754;6.106;2023-12-28T03:54:26;9.70;99.90
12726;DHT22;6427;49.754;6.106;2023-12-28T03:56:53;9.70;99.90
12726;DHT22;6427;49.754;6.106;2023-12-28T03:59:21;9.90;99.90
12726;DHT22;6427;49.754;6.106;2023-12-28T04:01:49;9.90;99.90
12726;DHT22;6427;49.754;6.106;2023-12-28T04:04:17;9.80;99.90
12726;DHT22;6427;49.754;6.106;2023-12-28T04:06:44;9.80;99.90
12726;DHT22;6427;49.754;6.106;2023-12-28T04:09:13;9.90;99.90
12726;DHT22;6427;49.754;6.106;2023-12-28T04:11:40;9.90;99.90
12726;DHT22;6427;49.754;6.106;2023-12-28T04:14:09;9.70;99.90
12726;DHT22;6427;49.754;6.106;2023-12-28T04:16:37;9.60;99.90
12726;DHT22;6427;49.754;6.106;2023-12-28T04:19:05;9.60;99.90
12726;DHT22;6427;49.754;6.106;2023-12-28T04:21:32;9.60;99.90
12726;DHT22;6427;49.754;6.106;2023-12-28T04:24:00;9.50;99.90
12726;DHT22;6427;49.754;6.106;2023-12-28T04:26:27;9.50;99.90
12726;DHT22;6427;49.754;6.106;2023-12-28T04:28:56;9.80;99.90
12726;DHT22;6427;49.754;6.106;2023-12-28T04:31:23;9.80;99.90
12726;DHT22;6427;49.754;6.106;2023-12-28T04:33:51;9.80;99.90
12726;DHT22;6427;49.754;6.106;2023-12-28T04:36:19;10.00;99.90
12726;DHT22;6427;49.754;6.106;2023-12-28T04:38:47;10.00;99.90
12726;DHT22;6427;49.754;6.106;2023-12-28T04:41:15;9.90;99.90
12726;DHT22;6427;49.754;6.106;2023-12-28T04:43:42;10.20;99.90
12726;DHT22;6427;49.754;6.106;2023-12-28T04:46:10;10.00;99.90
12726;DHT22;6427;49.754;6.106;2023-12-28T04:48:37;9.90;99.90
12726;DHT22;6427;49.754;6.106;2023-12-28T04:51:05;9.90;99.90
12726;DHT22;6427;49.754;6.106;2023-12-28T04:53:33;9.80;99.90
12726;DHT22;6427;49.754;6.106;2023-12-28T04:56:00;9.80;99.90
12726;DHT22;6427;49.754;6.106;2023-12-28T04:58:28;10.10;99.90
12726;DHT22;6427;49.754;6.106;2023-12-28T05:00:56;10.00;99.90
12726;DHT22;6427;49.754;6.106;2023-12-28T05:03:23;9.90;99.90
12726;DHT22;6427;49.754;6.106;2023-12-28T05:05:52;9.80;99.90
12726;DHT22;6427;49.754;6.106;2023-12-28T05:08:20;9.80;99.90
12726;DHT22;6427;49.754;6.106;2023-12-28T05:10:48;9.80;99.90
12726;DHT22;6427;49.754;6.106;2023-12-28T05:13:15;9.80;99.90
12726;DHT22;6427;49.754;6.106;2023-12-28T05:15:43;9.80;99.90
12726;DHT22;6427;49.754;6.106;2023-12-28T05:18:11;9.80;99.90
12726;DHT22;6427;49.754;6.106;2023-12-28T05:20:39;9.80;99.90
12726;DHT22;6427;49.754;6.106;2023-12-28T05:23:07;9.80;99.90
12726;DHT22;6427;49.754;6.106;2023-12-28T05:25:35;9.80;99.90
12726;DHT22;6427;49.754;6.106;2023-12-28T05:28:03;9.80;99.90
12726;DHT22;6427;49.754;6.106;2023-12-28T05:30:30;9.80;99.90
12726;DHT22;6427;49.754;6.106;2023-12-28T05:32:58;9.80;99.90
12726;DHT22;6427;49.754;6.106;2023-12-28T05:35:25;9.80;99.90
12726;DHT22;6427;49.754;6.106;2023-12-28T05:37:53;9.90;99.90
12726;DHT22;6427;49.754;6.106;2023-12-28T05:40:21;10.20;99.90
12726;DHT22;6427;49.754;6.106;2023-12-28T05:42:48;10.20;99.90
12726;DHT22;6427;49.754;6.106;2023-12-28T05:45:17;10.40;99.90
12726;DHT22;6427;49.754;6.106;2023-12-28T05:47:44;10.40;99.90
12726;DHT22;6427;49.754;6.106;2023-12-28T05:50:12;10.30;99.90
12726;DHT22;6427;49.754;6.106;2023-12-28T05:52:39;10.20;99.90
12726;DHT22;6427;49.754;6.106;2023-12-28T05:55:07;10.20;99.90
12726;DHT22;6427;49.754;6.106;2023-12-28T05:57:36;10.10;99.90
12726;DHT22;6427;49.754;6.106;2023-12-28T06:00:03;10.10;99.90
12726;DHT22;6427;49.754;6.106;2023-12-28T06:02:31;10.10;99.90
12726;DHT22;6427;49.754;6.106;2023-12-28T06:04:59;10.10;99.90
12726;DHT22;6427;49.754;6.106;2023-12-28T06:07:26;10.10;99.90
12726;DHT22;6427;49.754;6.106;2023-12-28T06:09:54;10.10;99.90
12726;DHT22;6427;49.754;6.106;2023-12-28T06:12:22;10.00;99.90
12726;DHT22;6427;49.754;6.106;2023-12-28T06:14:50;10.00;99.90
12726;DHT22;6427;49.754;6.106;2023-12-28T06:17:18;10.30;99.90
12726;DHT22;6427;49.754;6.106;2023-12-28T06:19:46;10.30;99.90
12726;DHT22;6427;49.754;6.106;2023-12-28T06:22:14;10.30;99.90
12726;DHT22;6427;49.754;6.106;2023-12-28T06:24:41;10.20;99.90
12726;DHT22;6427;49.754;6.106;2023-12-28T06:27:10;10.00;99.90
12726;DHT22;6427;49.754;6.106;2023-12-28T06:29:37;10.10;99.90
12726;DHT22;6427;49.754;6.106;2023-12-28T06:32:05;10.10;99.90
12726;DHT22;6427;49.754;6.106;2023-12-28T06:34:33;10.00;99.90
12726;DHT22;6427;49.754;6.106;2023-12-28T06:37:00;10.00;99.90
12726;DHT22;6427;49.754;6.106;2023-12-28T06:39:28;10.00;99.90
12726;DHT22;6427;49.754;6.106;2023-12-28T06:41:55;10.00;99.90
12726;DHT22;6427;49.754;6.106;2023-12-28T06:44:24;9.90;99.90
12726;DHT22;6427;49.754;6.106;2023-12-28T06:46:52;9.90;99.90
12726;DHT22;6427;49.754;6.106;2023-12-28T06:49:20;10.30;99.90
12726;DHT22;6427;49.754;6.106;2023-12-28T06:51:47;10.50;99.90
12726;DHT22;6427;49.754;6.106;2023-12-28T06:54:15;10.40;99.90
12726;DHT22;6427;49.754;6.106;2023-12-28T06:56:42;10.30;99.90
12726;DHT22;6427;49.754;6.106;2023-12-28T06:59:10;10.20;99.90
12726;DHT22;6427;49.754;6.106;2023-12-28T07:01:41;10.20;99.90
12726;DHT22;6427;49.754;6.106;2023-12-28T07:04:08;10.10;99.90
12726;DHT22;6427;49.754;6.106;2023-12-28T07:06:36;10.10;99.90
12726;DHT22;6427;49.754;6.106;2023-12-28T07:09:03;10.00;99.90
12726;DHT22;6427;49.754;6.106;2023-12-28T07:11:31;10.00;99.90
12726;DHT22;6427;49.754;6.106;2023-12-28T07:13:59;10.00;99.90
12726;DHT22;6427;49.754;6.106;2023-12-28T07:16:26;10.00;99.90
12726;DHT22;6427;49.754;6.106;2023-12-28T07:18:54;10.00;99.90
12726;DHT22;6427;49.754;6.106;2023-12-28T07:21:22;10.40;99.90
12726;DHT22;6427;49.754;6.106;2023-12-28T07:23:49;10.30;99.90
12726;DHT22;6427;49.754;6.106;2023-12-28T07:26:17;10.30;99.90
12726;DHT22;6427;49.754;6.106;2023-12-28T07:28:44;10.30;99.90
12726;DHT22;6427;49.754;6.106;2023-12-28T07:31:21;10.20;99.90
12726;DHT22;6427;49.754;6.106;2023-12-28T07:33:40;10.20;99.90
12726;DHT22;6427;49.754;6.106;2023-12-28T07:36:07;10.50;99.90
12726;DHT22;6427;49.754;6.106;2023-12-28T07:38:35;10.80;99.90
12726;DHT22;6427;49.754;6.106;2023-12-28T07:41:03;10.60;99.90
12726;DHT22;6427;49.754;6.106;2023-12-28T07:43:31;10.70;99.90
12726;DHT22;6427;49.754;6.106;2023-12-28T07:45:59;10.60;99.90
12726;DHT22;6427;49.754;6.106;2023-12-28T07:48:27;10.60;99.90
12726;DHT22;6427;49.754;6.106;2023-12-28T07:50:54;10.50;99.90
12726;DHT22;6427;49.754;6.106;2023-12-28T07:53:22;10.50;99.90
12726;DHT22;6427;49.754;6.106;2023-12-28T07:55:50;10.40;99.90
12726;DHT22;6427;49.754;6.106;2023-12-28T07:58:17;10.40;99.90
12726;DHT22;6427;49.754;6.106;2023-12-28T08:00:45;10.40;99.90
12726;DHT22;6427;49.754;6.106;2023-12-28T08:03:13;10.40;99.90
12726;DHT22;6427;49.754;6.106;2023-12-28T08:05:41;10.60;99.90
12726;DHT22;6427;49.754;6.106;2023-12-28T08:08:09;10.60;99.90
12726;DHT22;6427;49.754;6.106;2023-12-28T08:10:37;10.60;99.90
12726;DHT22;6427;49.754;6.106;2023-12-28T08:13:05;10.50;99.90
12726;DHT22;6427;49.754;6.106;2023-12-28T08:15:33;10.50;99.90
12726;DHT22;6427;49.754;6.106;2023-12-28T08:18:01;10.80;99.90
12726;DHT22;6427;49.754;6.106;2023-12-28T08:20:29;10.80;99.90
12726;DHT22;6427;49.754;6.106;2023-12-28T08:22:56;10.80;99.90
12726;DHT22;6427;49.754;6.106;2023-12-28T08:25:24;10.70;99.90
12726;DHT22;6427;49.754;6.106;2023-12-28T08:27:52;10.60;99.90
12726;DHT22;6427;49.754;6.106;2023-12-28T08:30:21;10.60;99.90
12726;DHT22;6427;49.754;6.106;2023-12-28T08:32:49;10.60;99.90
12726;DHT22;6427;49.754;6.106;2023-12-28T08:35:17;10.60;99.90
12726;DHT22;6427;49.754;6.106;2023-12-28T08:37:44;10.60;99.90
12726;DHT22;6427;49.754;6.106;2023-12-28T08:40:12;10.60;99.90
12726;DHT22;6427;49.754;6.106;2023-12-28T08:42:40;10.60;99.90
12726;DHT22;6427;49.754;6.106;2023-12-28T08:45:07;10.60;99.90
12726;DHT22;6427;49.754;6.106;2023-12-28T08:47:35;10.60;99.90
12726;DHT22;6427;49.754;6.106;2023-12-28T08:50:03;10.60;99.90
12726;DHT22;6427;49.754;6.106;2023-12-28T08:52:32;10.60;99.90
12726;DHT22;6427;49.754;6.106;2023-12-28T08:54:59;10.60;99.90
12726;DHT22;6427;49.754;6.106;2023-12-28T08:57:27;11.00;99.90
12726;DHT22;6427;49.754;6.106;2023-12-28T08:59:55;10.80;99.90
12726;DHT22;6427;49.754;6.106;2023-12-28T09:02:23;10.80;99.90
12726;DHT22;6427;49.754;6.106;2023-12-28T09:04:51;10.80;99.90
12726;DHT22;6427;49.754;6.106;2023-12-28T09:07:18;10.70;99.90
12726;DHT22;6427;49.754;6.106;2023-12-28T09:09:46;11.00;99.90
12726;DHT22;6427;49.754;6.106;2023-12-28T09:12:14;11.20;99.90
12726;DHT22;6427;49.754;6.106;2023-12-28T09:14:42;11.20;99.90
12726;DHT22;6427;49.754;6.106;2023-12-28T09:17:10;11.10;99.90
12726;DHT22;6427;49.754;6.106;2023-12-28T09:19:38;11.00;99.90
12726;DHT22;6427;49.754;6.106;2023-12-28T09:22:05;10.90;99.90
12726;DHT22;6427;49.754;6.106;2023-12-28T09:24:33;10.90;99.90
12726;DHT22;6427;49.754;6.106;2023-12-28T09:27:01;10.90;99.90
12726;DHT22;6427;49.754;6.106;2023-12-28T09:29:29;10.90;99.90
12726;DHT22;6427;49.754;6.106;2023-12-28T09:31:57;10.80;99.90
12726;DHT22;6427;49.754;6.106;2023-12-28T09:34:24;10.90;99.90
12726;DHT22;6427;49.754;6.106;2023-12-28T09:36:52;10.80;99.90
12726;DHT22;6427;49.754;6.106;2023-12-28T09:39:20;10.90;99.90
12726;DHT22;6427;49.754;6.106;2023-12-28T09:41:48;10.90;99.90
12726;DHT22;6427;49.754;6.106;2023-12-28T09:44:15;10.90;99.90
12726;DHT22;6427;49.754;6.106;2023-12-28T09:46:42;10.90;99.90
12726;DHT22;6427;49.754;6.106;2023-12-28T09:49:10;10.90;99.90
12726;DHT22;6427;49.754;6.106;2023-12-28T09:51:38;10.90;99.90
12726;DHT22;6427;49.754;6.106;2023-12-28T09:54:05;10.90;99.90
12726;DHT22;6427;49.754;6.106;2023-12-28T09:56:33;11.00;99.90
12726;DHT22;6427;49.754;6.106;2023-12-28T09:59:00;11.00;99.90
12726;DHT22;6427;49.754;6.106;2023-12-28T10:01:28;11.00;99.90
12726;DHT22;6427;49.754;6.106;2023-12-28T10:03:56;11.40;99.90
12726;DHT22;6427;49.754;6.106;2023-12-28T10:06:23;11.30;99.90
12726;DHT22;6427;49.754;6.106;2023-12-28T10:08:51;11.30;99.90
12726;DHT22;6427;49.754;6.106;2023-12-28T10:11:19;11.20;99.90
12726;DHT22;6427;49.754;6.106;2023-12-28T10:13:50;11.20;99.90
12726;DHT22;6427;49.754;6.106;2023-12-28T10:16:17;11.20;99.90
12726;DHT22;6427;49.754;6.106;2023-12-28T10:18:46;11.60;99.90
12726;DHT22;6427;49.754;6.106;2023-12-28T10:21:13;11.50;99.90
12726;DHT22;6427;49.754;6.106;2023-12-28T10:23:41;11.50;99.90
12726;DHT22;6427;49.754;6.106;2023-12-28T10:26:09;11.50;99.90
12726;DHT22;6427;49.754;6.106;2023-12-28T10:28:36;11.50;99.90
12726;DHT22;6427;49.754;6.106;2023-12-28T10:31:04;11.50;99.90
12726;DHT22;6427;49.754;6.106;2023-12-28T10:33:37;11.50;99.90
12726;DHT22;6427;49.754;6.106;2023-12-28T10:36:06;11.50;99.90
12726;DHT22;6427;49.754;6.106;2023-12-28T10:38:36;11.40;99.90
12726;DHT22;6427;49.754;6.106;2023-12-28T10:41:09;11.40;99.90
12726;DHT22;6427;49.754;6.106;2023-12-28T10:43:46;11.40;99.90
12726;DHT22;6427;49.754;6.106;2023-12-28T10:46:26;11.40;99.90
12726;DHT22;6427;49.754;6.106;2023-12-28T10:48:44;11.50;99.90
12726;DHT22;6427;49.754;6.106;2023-12-28T10:51:11;11.40;99.90
12726;DHT22;6427;49.754;6.106;2023-12-28T10:54:11;11.40;99.90
12726;DHT22;6427;49.754;6.106;2023-12-28T10:56:41;11.40;99.90
12726;DHT22;6427;49.754;6.106;2023-12-28T10:59:17;11.50;99.90
12726;DHT22;6427;49.754;6.106;2023-12-28T11:01:42;11.50;99.90
12726;DHT22;6427;49.754;6.106;2023-12-28T11:07:11;11.50;99.90
12726;DHT22;6427;49.754;6.106;2023-12-28T11:09:40;11.90;99.90
12726;DHT22;6427;49.754;6.106;2023-12-28T11:12:07;11.90;99.90
12726;DHT22;6427;49.754;6.106;2023-12-28T11:14:34;11.80;99.90
12726;DHT22;6427;49.754;6.106;2023-12-28T11:17:02;11.80;99.90
12726;DHT22;6427;49.754;6.106;2023-12-28T11:19:30;11.80;99.90
12726;DHT22;6427;49.754;6.106;2023-12-28T11:21:57;11.80;99.90
12726;DHT22;6427;49.754;6.106;2023-12-28T11:24:28;11.90;99.90
12726;DHT22;6427;49.754;6.106;2023-12-28T11:26:54;11.90;99.90
12726;DHT22;6427;49.754;6.106;2023-12-28T11:29:24;11.90;99.90
12726;DHT22;6427;49.754;6.106;2023-12-28T11:31:51;12.00;99.90
12726;DHT22;6427;49.754;6.106;2023-12-28T11:34:19;12.00;99.90
12726;DHT22;6427;49.754;6.106;2023-12-28T11:36:51;12.10;99.90
12726;DHT22;6427;49.754;6.106;2023-12-28T11:39:18;12.00;99.90
12726;DHT22;6427;49.754;6.106;2023-12-28T11:41:42;12.10;99.90
12726;DHT22;6427;49.754;6.106;2023-12-28T11:44:10;12.40;99.90
12726;DHT22;6427;49.754;6.106;2023-12-28T11:46:38;12.30;99.90
12726;DHT22;6427;49.754;6.106;2023-12-28T11:49:05;12.30;99.90
12726;DHT22;6427;49.754;6.106;2023-12-28T11:51:34;12.30;99.90
12726;DHT22;6427;49.754;6.106;2023-12-28T11:54:01;12.30;99.90
12726;DHT22;6427;49.754;6.106;2023-12-28T11:56:28;12.30;99.90
12726;DHT22;6427;49.754;6.106;2023-12-28T11:58:57;12.30;99.90
12726;DHT22;6427;49.754;6.106;2023-12-28T12:01:25;12.70;99.90
12726;DHT22;6427;49.754;6.106;2023-12-28T12:03:53;12.60;99.90
12726;DHT22;6427;49.754;6.106;2023-12-28T12:06:21;12.60;99.90
12726;DHT22;6427;49.754;6.106;2023-12-28T12:08:49;12.60;99.90
12726;DHT22;6427;49.754;6.106;2023-12-28T12:11:17;12.50;99.90
12726;DHT22;6427;49.754;6.106;2023-12-28T12:13:44;12.50;99.90
12726;DHT22;6427;49.754;6.106;2023-12-28T12:16:15;12.40;99.90
12726;DHT22;6427;49.754;6.106;2023-12-28T12:18:42;12.40;99.90
12726;DHT22;6427;49.754;6.106;2023-12-28T12:21:10;12.40;99.90
12726;DHT22;6427;49.754;6.106;2023-12-28T12:23:38;12.70;99.90
12726;DHT22;6427;49.754;6.106;2023-12-28T12:26:06;12.70;99.90
12726;DHT22;6427;49.754;6.106;2023-12-28T12:28:33;12.60;99.90
12726;DHT22;6427;49.754;6.106;2023-12-28T12:31:02;12.60;99.90
12726;DHT22;6427;49.754;6.106;2023-12-28T12:33:30;12.60;99.90
12726;DHT22;6427;49.754;6.106;2023-12-28T12:35:57;12.60;99.90
12726;DHT22;6427;49.754;6.106;2023-12-28T12:38:25;12.60;99.90
12726;DHT22;6427;49.754;6.106;2023-12-28T12:40:53;12.60;99.90
12726;DHT22;6427;49.754;6.106;2023-12-28T12:43:21;12.50;99.90
12726;DHT22;6427;49.754;6.106;2023-12-28T12:45:49;12.60;99.90
12726;DHT22;6427;49.754;6.106;2023-12-28T12:48:17;12.60;99.90
12726;DHT22;6427;49.754;6.106;2023-12-28T12:50:44;12.50;99.90
12726;DHT22;6427;49.754;6.106;2023-12-28T12:53:12;12.50;99.90
12726;DHT22;6427;49.754;6.106;2023-12-28T12:55:40;12.40;99.90
12726;DHT22;6427;49.754;6.106;2023-12-28T12:58:12;12.40;99.90
12726;DHT22;6427;49.754;6.106;2023-12-28T13:00:40;12.40;99.90
12726;DHT22;6427;49.754;6.106;2023-12-28T13:03:08;12.40;99.90
12726;DHT22;6427;49.754;6.106;2023-12-28T13:05:36;12.50;99.90
12726;DHT22;6427;49.754;6.106;2023-12-28T13:08:04;12.70;99.90
12726;DHT22;6427;49.754;6.106;2023-12-28T13:10:31;12.70;99.90
12726;DHT22;6427;49.754;6.106;2023-12-28T13:12:58;12.60;99.90
12726;DHT22;6427;49.754;6.106;2023-12-28T13:15:26;12.50;99.90
12726;DHT22;6427;49.754;6.106;2023-12-28T13:17:54;12.50;99.90
12726;DHT22;6427;49.754;6.106;2023-12-28T13:20:21;12.40;99.90
12726;DHT22;6427;49.754;6.106;2023-12-28T13:22:49;12.40;99.90
12726;DHT22;6427;49.754;6.106;2023-12-28T13:25:17;12.30;99.90
12726;DHT22;6427;49.754;6.106;2023-12-28T13:27:45;12.30;99.90
12726;DHT22;6427;49.754;6.106;2023-12-28T13:30:12;12.30;99.90
12726;DHT22;6427;49.754;6.106;2023-12-28T13:32:40;12.20;99.90
12726;DHT22;6427;49.754;6.106;2023-12-28T13:35:08;12.20;99.90
12726;DHT22;6427;49.754;6.106;2023-12-28T13:37:36;12.50;99.90
12726;DHT22;6427;49.754;6.106;2023-12-28T13:40:04;12.40;99.90
12726;DHT22;6427;49.754;6.106;2023-12-28T13:42:32;12.30;99.90
12726;DHT22;6427;49.754;6.106;2023-12-28T13:45:00;12.30;99.90
12726;DHT22;6427;49.754;6.106;2023-12-28T13:47:28;12.20;99.90
12726;DHT22;6427;49.754;6.106;2023-12-28T13:49:56;12.30;99.90
12726;DHT22;6427;49.754;6.106;2023-12-28T13:52:24;12.30;99.90
12726;DHT22;6427;49.754;6.106;2023-12-28T13:54:52;12.20;99.90
12726;DHT22;6427;49.754;6.106;2023-12-28T13:57:19;12.10;99.90
12726;DHT22;6427;49.754;6.106;2023-12-28T13:59:47;12.00;99.90
12726;DHT22;6427;49.754;6.106;2023-12-28T14:02:14;12.00;99.90
12726;DHT22;6427;49.754;6.106;2023-12-28T14:04:42;11.90;99.90
12726;DHT22;6427;49.754;6.106;2023-12-28T14:07:09;11.80;99.90
12726;DHT22;6427;49.754;6.106;2023-12-28T14:09:37;11.80;99.90
12726;DHT22;6427;49.754;6.106;2023-12-28T14:12:05;11.70;99.90
12726;DHT22;6427;49.754;6.106;2023-12-28T14:14:32;11.60;99.90
12726;DHT22;6427;49.754;6.106;2023-12-28T14:17:00;11.50;99.90
12726;DHT22;6427;49.754;6.106;2023-12-28T14:19:27;11.50;99.90
12726;DHT22;6427;49.754;6.106;2023-12-28T14:21:55;11.50;99.90
12726;DHT22;6427;49.754;6.106;2023-12-28T14:24:23;11.50;99.90
12726;DHT22;6427;49.754;6.106;2023-12-28T14:26:55;11.50;99.90
12726;DHT22;6427;49.754;6.106;2023-12-28T14:29:23;11.40;99.90
12726;DHT22;6427;49.754;6.106;2023-12-28T14:31:51;11.40;99.90
12726;DHT22;6427;49.754;6.106;2023-12-28T14:34:18;11.40;99.90
12726;DHT22;6427;49.754;6.106;2023-12-28T14:36:46;11.40;99.90
12726;DHT22;6427;49.754;6.106;2023-12-28T14:39:13;11.40;99.90
12726;DHT22;6427;49.754;6.106;2023-12-28T14:41:41;11.40;99.90
12726;DHT22;6427;49.754;6.106;2023-12-28T14:44:09;11.40;99.90
12726;DHT22;6427;49.754;6.106;2023-12-28T14:46:36;11.40;99.90
12726;DHT22;6427;49.754;6.106;2023-12-28T14:49:04;11.40;99.90
12726;DHT22;6427;49.754;6.106;2023-12-28T14:51:32;11.40;99.90
12726;DHT22;6427;49.754;6.106;2023-12-28T14:54:00;11.40;99.90
12726;DHT22;6427;49.754;6.106;2023-12-28T14:56:27;11.40;99.90
12726;DHT22;6427;49.754;6.106;2023-12-28T14:58:55;11.40;99.90
12726;DHT22;6427;49.754;6.106;2023-12-28T15:01:22;11.30;99.90
12726;DHT22;6427;49.754;6.106;2023-12-28T15:03:51;11.60;99.90
12726;DHT22;6427;49.754;6.106;2023-12-28T15:06:18;11.50;99.90
12726;DHT22;6427;49.754;6.106;2023-12-28T15:08:47;11.70;99.90
12726;DHT22;6427;49.754;6.106;2023-12-28T15:11:16;11.70;99.90
12726;DHT22;6427;49.754;6.106;2023-12-28T15:13:44;11.50;99.90
12726;DHT22;6427;49.754;6.106;2023-12-28T15:16:12;11.50;99.90
12726;DHT22;6427;49.754;6.106;2023-12-28T15:18:39;11.40;99.90
12726;DHT22;6427;49.754;6.106;2023-12-28T15:21:07;11.60;99.90
12726;DHT22;6427;49.754;6.106;2023-12-28T15:23:36;11.70;99.90
12726;DHT22;6427;49.754;6.106;2023-12-28T15:26:03;11.60;99.90
12726;DHT22;6427;49.754;6.106;2023-12-28T15:28:31;11.50;99.90
12726;DHT22;6427;49.754;6.106;2023-12-28T15:30:59;11.30;99.90
12726;DHT22;6427;49.754;6.106;2023-12-28T15:33:27;11.30;99.90
12726;DHT22;6427;49.754;6.106;2023-12-28T15:35:54;11.20;99.90
12726;DHT22;6427;49.754;6.106;2023-12-28T15:38:22;11.20;99.90
12726;DHT22;6427;49.754;6.106;2023-12-28T15:40:49;11.10;99.90
12726;DHT22;6427;49.754;6.106;2023-12-28T15:43:17;11.10;99.90
12726;DHT22;6427;49.754;6.106;2023-12-28T15:45:45;11.40;99.90
12726;DHT22;6427;49.754;6.106;2023-12-28T15:48:12;11.30;99.90
12726;DHT22;6427;49.754;6.106;2023-12-28T15:50:40;11.20;99.90
12726;DHT22;6427;49.754;6.106;2023-12-28T15:53:08;11.10;99.90
12726;DHT22;6427;49.754;6.106;2023-12-28T15:55:36;11.10;99.90
12726;DHT22;6427;49.754;6.106;2023-12-28T15:58:03;11.00;99.90
12726;DHT22;6427;49.754;6.106;2023-12-28T16:00:31;11.00;99.90
12726;DHT22;6427;49.754;6.106;2023-12-28T16:02:59;10.90;99.90